Time;durP1;ratioP1;P1;durP2;ratioP2;P2;SDS_P1;SDS_P2;PMS_P1;PMS_P2;Temp;Humidity;BMP_temperature;BMP_pressure;BME280_temperature;BME280_humidity;BME280_pressure;Samples;Min_cycle;Max_cycle;Signal;HPM_P1;HPM_P2
2022/05/18 00:00:14;;;;;;;13.55;8.15;;;15.30;99.90;;;;;;5059062;28;20017;-82
2022/05/18 00:02:40;;;;;;;10.40;7.53;;;15.10;99.90;;;;;;5057193;28;20093;-81
2022/05/18 00:05:06;;;;;;;13.40;7.85;;;14.80;99.90;;;;;;5059643;28;20025;-82
2022/05/18 00:07:32;;;;;;;12.15;7.78;;;14.70;99.90;;;;;;5077567;28;20037;-82
2022/05/18 00:09:57;;;;;;;10.52;8.18;;;14.80;99.90;;;;;;5077210;28;20017;-82
2022/05/18 00:12:24;;;;;;;11.00;8.10;;;14.80;99.90;;;;;;5076149;28;20044;-81
2022/05/18 00:14:50;;;;;;;12.85;8.18;;;14.90;99.90;;;;;;5076425;28;20047;-81
2022/05/18 00:17:15;;;;;;;12.88;7.97;;;14.70;99.90;;;;;;5076183;28;20029;-82
2022/05/18 00:19:41;;;;;;;12.50;8.23;;;14.70;99.90;;;;;;5076242;28;20025;-81
2022/05/18 00:22:06;;;;;;;15.27;8.43;;;14.70;99.90;;;;;;5077910;28;20021;-81
2022/05/18 00:24:32;;;;;;;12.32;8.32;;;14.60;99.90;;;;;;5077984;28;20024;-82
2022/05/18 00:26:58;;;;;;;11.60;8.15;;;14.60;99.90;;;;;;5076712;28;20057;-82
2022/05/18 00:29:23;;;;;;;13.13;8.57;;;14.50;99.90;;;;;;5077249;28;20025;-81
2022/05/18 00:31:49;;;;;;;14.50;7.88;;;14.40;99.90;;;;;;5076236;28;20029;-81
2022/05/18 00:34:16;;;;;;;11.50;7.55;;;14.40;99.90;;;;;;5073609;28;20040;-81
2022/05/18 00:36:42;;;;;;;10.60;7.40;;;14.50;99.90;;;;;;5054688;28;20064;-80
2022/05/18 00:39:07;;;;;;;12.05;7.60;;;14.50;99.90;;;;;;5072325;28;20500;-81
2022/05/18 00:41:33;;;;;;;11.15;7.32;;;14.50;99.90;;;;;;5075912;28;20025;-80
2022/05/18 00:43:59;;;;;;;9.00;7.60;;;14.50;99.90;;;;;;5074800;28;20033;-81
2022/05/18 00:46:25;;;;;;;11.13;7.50;;;14.50;99.90;;;;;;5055380;28;20025;-81
2022/05/18 00:48:52;;;;;;;13.55;7.75;;;14.40;99.90;;;;;;5052986;28;20056;-80
2022/05/18 00:51:31;;;;;;;12.05;7.85;;;14.50;99.90;;;;;;5055338;28;20045;-81
2022/05/18 00:54:06;;;;;;;10.93;7.38;;;14.50;99.90;;;;;;5057775;28;20032;-81
2022/05/18 00:56:40;;;;;;;13.30;7.40;;;14.50;99.90;;;;;;5057862;28;20025;-81
2022/05/18 00:59:10;;;;;;;10.25;6.70;;;14.40;99.90;;;;;;5076971;28;20021;-81
2022/05/18 01:01:36;;;;;;;;;;;14.20;99.90;;;;;;5078327;28;20025;-82
2022/05/18 01:04:03;;;;;;;12.63;8.27;;;14.10;99.90;;;;;;5077270;28;19916;-81
2022/05/18 01:06:47;;;;;;;13.23;7.80;;;14.10;99.90;;;;;;5076885;28;20073;-81
2022/05/18 01:09:21;;;;;;;11.50;7.13;;;14.00;99.90;;;;;;5076014;28;20020;-81
2022/05/18 01:11:47;;;;;;;12.60;7.30;;;14.10;99.90;;;;;;5075837;28;20104;-81
2022/05/18 01:14:36;;;;;;;10.73;7.68;;;14.30;99.90;;;;;;5076896;28;20025;-81
2022/05/18 01:17:01;;;;;;;11.18;7.10;;;14.40;99.90;;;;;;5075966;28;20062;-82
2022/05/18 01:19:38;;;;;;;12.75;7.50;;;14.20;99.90;;;;;;5075432;28;20311;-81
2022/05/18 01:22:33;;;;;;;9.80;7.38;;;14.10;99.90;;;;;;5077380;28;20020;-81
2022/05/18 01:25:08;;;;;;;12.73;8.13;;;14.10;99.90;;;;;;5077348;28;20486;-81
2022/05/18 01:27:34;;;;;;;14.88;7.95;;;14.10;99.90;;;;;;5076893;28;20045;-81
2022/05/18 01:30:00;;;;;;;12.70;7.22;;;14.00;99.90;;;;;;5077183;28;20032;-81
2022/05/18 01:32:37;;;;;;;10.68;8.35;;;13.90;99.90;;;;;;5075258;28;20029;-81
2022/05/18 01:35:03;;;;;;;11.05;8.23;;;13.90;99.90;;;;;;5055177;28;20036;-81
2022/05/18 01:37:28;;;;;;;13.55;8.07;;;13.90;99.90;;;;;;5054025;28;20021;-80
2022/05/18 01:39:58;;;;;;;13.52;8.10;;;14.10;99.90;;;;;;5053470;28;20005;-81
2022/05/18 01:42:35;;;;;;;9.73;7.60;;;14.10;99.90;;;;;;5054896;28;20013;-80
2022/05/18 01:45:01;;;;;;;15.70;8.50;;;14.10;99.90;;;;;;5073072;28;20093;-80
2022/05/18 01:47:33;;;;;;;10.32;7.40;;;13.90;99.90;;;;;;5071995;28;20039;-80
2022/05/18 01:50:01;;;;;;;13.15;8.00;;;13.90;99.90;;;;;;5071963;28;20163;-80
2022/05/18 01:52:26;;;;;;;12.48;8.50;;;13.80;99.90;;;;;;5073056;28;20021;-81
2022/05/18 01:54:52;;;;;;;13.70;8.55;;;13.70;99.90;;;;;;5072891;28;20015;-81
2022/05/18 01:57:18;;;;;;;11.10;7.95;;;13.70;99.90;;;;;;5057253;28;20022;-81
2022/05/18 01:59:43;;;;;;;14.68;8.68;;;14.00;99.90;;;;;;5053815;28;20017;-80
2022/05/18 02:02:12;;;;;;;11.18;8.18;;;13.80;99.90;;;;;;5051770;28;20018;-81
2022/05/18 02:04:39;;;;;;;11.38;8.27;;;13.70;99.90;;;;;;5063778;28;20068;-80
2022/05/18 02:07:05;;;;;;;11.38;8.98;;;13.60;99.90;;;;;;5072196;28;20089;-80
2022/05/18 02:09:31;;;;;;;12.07;8.68;;;13.40;99.90;;;;;;5071682;28;20017;-81
2022/05/18 02:11:57;;;;;;;19.38;9.25;;;13.50;99.90;;;;;;5069508;28;20043;-80
2022/05/18 02:14:23;;;;;;;14.85;8.50;;;13.70;99.90;;;;;;5055625;28;20089;-80
2022/05/18 02:16:49;;;;;;;14.30;8.88;;;13.60;99.90;;;;;;5053626;28;20035;-81
2022/05/18 02:19:16;;;;;;;12.70;9.15;;;13.60;99.90;;;;;;5049941;28;20029;-80
2022/05/18 02:21:42;;;;;;;14.65;9.27;;;13.40;99.90;;;;;;5050022;28;20076;-80
2022/05/18 02:24:08;;;;;;;13.57;8.80;;;13.40;99.90;;;;;;5059240;28;20033;-80
2022/05/18 02:26:34;;;;;;;14.65;9.48;;;13.40;99.90;;;;;;5069382;28;20076;-81
2022/05/18 02:28:59;;;;;;;16.20;9.65;;;13.40;99.90;;;;;;5073436;28;20025;-81
2022/05/18 02:31:25;;;;;;;15.20;9.77;;;13.60;99.90;;;;;;5075318;28;20029;-81
2022/05/18 02:33:50;;;;;;;14.57;9.20;;;13.80;99.90;;;;;;5073391;28;20047;-81
2022/05/18 02:36:16;;;;;;;16.17;9.50;;;13.50;99.90;;;;;;5071295;28;20056;-81
2022/05/18 02:38:42;;;;;;;16.50;9.40;;;13.50;99.90;;;;;;5071873;28;20097;-81
2022/05/18 02:41:09;;;;;;;16.02;9.55;;;13.50;99.90;;;;;;5073168;28;20024;-80
2022/05/18 02:43:38;;;;;;;15.50;10.32;;;13.50;99.90;;;;;;5073837;28;20024;-81
2022/05/18 02:46:23;;;;;;;19.48;9.90;;;13.60;99.90;;;;;;5057128;28;20029;-81
2022/05/18 02:48:52;;;;;;;15.43;10.43;;;13.40;99.90;;;;;;5076384;28;20080;-81
2022/05/18 02:51:19;;;;;;;16.05;9.88;;;13.60;99.90;;;;;;5076833;28;20013;-81
2022/05/18 02:53:45;;;;;;;19.67;10.43;;;13.90;99.90;;;;;;5076817;28;20024;-82
2022/05/18 02:56:14;;;;;;;14.35;9.90;;;13.60;99.90;;;;;;5076840;28;20025;-81
2022/05/18 02:58:43;;;;;;;19.67;10.83;;;13.40;99.90;;;;;;5065578;28;20086;-81
2022/05/18 03:01:24;;;;;;;16.70;10.15;;;13.60;99.90;;;;;;5056916;28;20258;-81
2022/05/18 03:03:51;;;;;;;15.63;10.95;;;13.40;99.90;;;;;;5060696;28;20051;-82
2022/05/18 03:06:19;;;;;;;17.30;10.70;;;13.60;99.90;;;;;;5076963;28;20009;-82
2022/05/18 03:08:45;;;;;;;18.23;10.48;;;13.60;99.90;;;;;;5076141;28;20026;-81
2022/05/18 03:11:12;;;;;;;18.95;10.27;;;13.40;99.90;;;;;;5058029;28;20093;-80
2022/05/18 03:13:38;;;;;;;14.70;10.40;;;13.40;99.90;;;;;;5074358;28;20021;-81
2022/05/18 03:16:04;;;;;;;16.73;10.55;;;13.40;99.90;;;;;;5058268;28;20040;-81
2022/05/18 03:18:30;;;;;;;14.20;9.55;;;13.20;99.90;;;;;;5075420;28;20017;-81
2022/05/18 03:23:40;;;;;;;15.57;10.57;;;13.20;99.90;;;;;;5058720;28;20037;-81
2022/05/18 03:26:18;;;;;;;15.60;10.32;;;13.30;99.90;;;;;;5055298;28;20046;-81
2022/05/18 03:28:46;;;;;;;18.88;10.80;;;13.40;99.90;;;;;;5055636;28;20049;-81
2022/05/18 03:31:12;;;;;;;16.98;10.82;;;13.40;99.90;;;;;;5056198;28;20045;-82
2022/05/18 03:33:38;;;;;;;14.65;9.90;;;13.50;99.90;;;;;;5056211;28;20065;-81
2022/05/18 03:36:05;;;;;;;16.50;10.50;;;13.60;99.90;;;;;;5055040;28;20040;-81
2022/05/18 03:38:31;;;;;;;17.80;10.18;;;13.70;99.90;;;;;;5055131;28;20014;-81
2022/05/18 03:40:57;;;;;;;17.98;11.38;;;13.80;99.90;;;;;;5055910;28;20045;-82
2022/05/18 03:43:23;;;;;;;18.55;11.05;;;13.80;99.90;;;;;;5056284;28;20033;-80
2022/05/18 03:45:49;;;;;;;16.40;10.60;;;13.90;99.90;;;;;;5055469;28;20069;-81
2022/05/18 03:48:15;;;;;;;19.30;10.52;;;13.90;99.90;;;;;;5054292;28;20029;-81
2022/05/18 03:50:43;;;;;;;20.13;11.75;;;14.00;99.90;;;;;;5054345;28;20024;-81
2022/05/18 03:53:09;;;;;;;19.40;11.32;;;14.10;99.90;;;;;;5056104;28;20025;-82
2022/05/18 03:55:37;;;;;;;17.80;10.43;;;14.20;99.90;;;;;;5056236;28;20082;-82
2022/05/18 03:58:03;;;;;;;18.50;11.13;;;14.20;99.90;;;;;;5056220;28;20014;-82
2022/05/18 04:00:30;;;;;;;16.90;11.13;;;14.10;99.90;;;;;;5056281;28;20014;-81
2022/05/18 04:02:56;;;;;;;14.30;9.75;;;14.10;99.90;;;;;;5055966;28;20013;-81
2022/05/18 04:05:21;;;;;;;15.43;10.05;;;14.10;99.90;;;;;;5072319;28;20041;-82
2022/05/18 04:07:48;;;;;;;15.77;11.00;;;14.10;99.90;;;;;;5075888;28;20021;-81
2022/05/18 04:10:14;;;;;;;15.95;10.05;;;14.30;99.90;;;;;;5057668;28;20060;-81
2022/05/18 04:12:41;;;;;;;18.08;10.35;;;14.40;99.90;;;;;;5054394;28;20085;-82
2022/05/18 04:15:07;;;;;;;15.65;11.00;;;15.00;99.90;;;;;;5057226;28;20055;-82
2022/05/18 04:17:33;;;;;;;15.25;10.43;;;15.00;99.90;;;;;;5056983;28;20021;-82
2022/05/18 04:19:59;;;;;;;15.93;10.80;;;15.00;99.90;;;;;;5065277;28;20485;-82
2022/05/18 04:22:25;;;;;;;19.75;10.77;;;15.10;99.90;;;;;;5061342;28;20018;-82
2022/05/18 04:24:51;;;;;;;14.98;10.75;;;15.00;99.90;;;;;;5079714;28;20017;-82
2022/05/18 04:27:16;;;;;;;16.27;11.13;;;15.00;99.90;;;;;;5063661;28;20045;-81
2022/05/18 04:29:42;;;;;;;15.15;10.65;;;15.20;99.90;;;;;;5059654;28;20045;-83
2022/05/18 04:32:08;;;;;;;15.38;10.88;;;15.30;99.90;;;;;;5071062;28;20043;-82
2022/05/18 04:34:34;;;;;;;15.68;10.73;;;15.40;99.90;;;;;;5078040;28;20089;-81
2022/05/18 04:37:00;;;;;;;16.33;10.05;;;16.40;99.90;;;;;;5073901;28;20380;-82
2022/05/18 04:39:26;;;;;;;15.50;10.52;;;17.20;1.00;;;;;;5069141;28;20036;-81
2022/05/18 04:41:51;;;;;;;14.90;10.23;;;17.90;1.00;;;;;;5074407;28;20021;-82
2022/05/18 04:44:17;;;;;;;15.20;11.32;;;19.50;1.00;;;;;;5077598;28;20037;-81
2022/05/18 04:46:45;;;;;;;11.70;9.73;;;17.80;1.00;;;;;;5076336;28;20072;-81
2022/05/18 04:49:12;;;;;;;18.20;11.77;;;16.70;1.00;;;;;;5075222;28;20036;-80
2022/05/18 04:51:37;;;;;;;15.18;10.43;;;16.40;11.50;;;;;;5072340;28;20036;-81
2022/05/18 04:54:03;;;;;;;14.98;10.93;;;16.50;26.10;;;;;;5053547;28;20108;-81
2022/05/18 04:56:35;;;;;;;17.55;10.57;;;16.50;30.00;;;;;;5067880;28;20005;-83
2022/05/18 04:59:00;;;;;;;16.17;9.80;;;18.40;1.00;;;;;;5060811;28;20045;-82
2022/05/18 05:01:26;;;;;;;12.82;10.07;;;21.40;99.90;;;;;;5061427;28;20037;-81
2022/05/18 05:03:52;;;;;;;13.35;10.07;;;22.90;99.90;;;;;;5044623;28;20033;-82
2022/05/18 05:06:18;;;;;;;15.68;10.68;;;22.50;99.90;;;;;;5053450;28;20603;-82
2022/05/18 05:08:43;;;;;;;11.80;9.60;;;20.80;99.90;;;;;;5071932;28;20349;-81
2022/05/18 05:11:09;;;;;;;16.52;10.82;;;19.70;99.90;;;;;;5073364;28;20309;-82
2022/05/18 05:13:36;;;;;;;17.10;11.00;;;22.70;99.90;;;;;;5076792;28;20033;-82
2022/05/18 05:16:07;;;;;;;14.25;10.27;;;24.30;99.90;;;;;;5073611;28;20357;-83
2022/05/18 05:18:33;;;;;;;16.48;9.95;;;26.50;99.90;;;;;;5053156;28;20037;-82
2022/05/18 05:20:59;;;;;;;14.98;10.23;;;25.80;99.90;;;;;;5068587;28;20025;-81
2022/05/18 05:23:26;;;;;;;12.93;9.65;;;24.40;99.90;;;;;;5051842;28;20607;-81
2022/05/18 05:25:53;;;;;;;15.82;10.45;;;22.90;99.90;;;;;;5052119;28;20037;-81
2022/05/18 05:28:18;;;;;;;14.52;9.60;;;21.80;99.90;;;;;;5048735;28;20045;-82
2022/05/18 05:30:44;;;;;;;14.60;10.30;;;21.50;99.90;;;;;;5047578;28;20026;-81
2022/05/18 05:33:11;;;;;;;10.82;9.45;;;23.50;99.90;;;;;;5056206;28;20399;-81
2022/05/18 05:35:41;;;;;;;15.35;10.52;;;23.10;99.90;;;;;;5061865;28;20029;-81
2022/05/18 05:38:08;;;;;;;15.90;11.27;;;24.20;99.90;;;;;;5040245;28;20109;-81
2022/05/18 05:40:34;;;;;;;14.50;10.32;;;22.70;99.90;;;;;;5065639;28;20021;-81
2022/05/18 05:43:06;;;;;;;13.68;10.25;;;22.50;99.90;;;;;;5068920;28;20042;-81
2022/05/18 05:45:32;;;;;;;18.60;11.23;;;22.20;99.90;;;;;;5051681;28;20371;-81
2022/05/18 05:47:58;;;;;;;13.48;10.77;;;23.40;99.90;;;;;;5068594;28;20401;-81
2022/05/18 05:50:25;;;;;;;14.40;10.68;;;27.50;99.90;;;;;;5067336;28;20021;-82
2022/05/18 05:52:51;;;;;;;16.15;10.88;;;29.60;99.90;;;;;;5067668;28;20032;-82
2022/05/18 05:55:17;;;;;;;12.95;9.95;;;31.40;99.90;;;;;;5065208;28;20029;-82
2022/05/18 05:57:42;;;;;;;15.40;10.65;;;33.00;99.90;;;;;;5064181;28;20035;-82
2022/05/18 06:00:09;;;;;;;15.48;9.98;;;33.40;99.90;;;;;;5061115;28;20029;-82
2022/05/18 06:02:34;;;;;;;12.75;10.30;;;33.70;99.90;;;;;;5059210;28;20017;-82
2022/05/18 06:05:03;;;;;;;15.45;10.02;;;33.10;99.90;;;;;;5060828;28;20090;-82
2022/05/18 06:07:29;;;;;;;13.60;10.65;;;33.90;99.90;;;;;;5058475;28;20017;-83
2022/05/18 06:09:54;;;;;;;12.65;10.40;;;33.20;99.90;;;;;;5058366;28;20476;-83
2022/05/18 06:12:20;;;;;;;14.45;10.52;;;35.20;99.90;;;;;;5056988;28;20083;-83
2022/05/18 06:14:45;;;;;;;15.43;11.10;;;35.80;99.90;;;;;;5057879;28;20053;-82
2022/05/18 06:17:11;;;;;;;12.10;10.48;;;36.10;99.90;;;;;;5048358;28;20377;-83
2022/05/18 06:19:37;;;;;;;15.30;10.93;;;35.00;99.90;;;;;;5034489;28;20028;-83
2022/05/18 06:22:03;;;;;;;12.85;10.88;;;36.80;99.90;;;;;;5057820;28;20029;-82
2022/05/18 06:24:28;;;;;;;12.70;10.75;;;37.00;99.90;;;;;;5038029;28;20087;-83
2022/05/18 06:27:00;;;;;;;14.15;10.95;;;37.20;99.90;;;;;;5035527;28;20381;-83
2022/05/18 06:29:26;;;;;;;11.85;10.30;;;37.60;99.90;;;;;;5036029;28;20068;-83
2022/05/18 06:31:52;;;;;;;12.98;10.80;;;37.50;99.90;;;;;;5035820;28;20171;-83
2022/05/18 06:34:21;;;;;;;13.50;11.05;;;37.90;99.90;;;;;;5053715;28;20404;-84
2022/05/18 06:36:47;;;;;;;14.88;10.60;;;39.50;99.90;;;;;;5053473;28;20411;-83
2022/05/18 06:39:12;;;;;;;14.82;11.20;;;37.70;99.90;;;;;;5054800;28;20029;-83
2022/05/18 06:41:38;;;;;;;12.00;10.80;;;37.80;99.90;;;;;;5055305;28;20494;-84
2022/05/18 06:44:04;;;;;;;11.50;10.10;;;38.70;99.90;;;;;;5055180;28;20037;-83
2022/05/18 06:46:35;;;;;;;12.30;10.30;;;40.40;99.90;;;;;;5053907;28;20036;-83
2022/05/18 06:49:02;;;;;;;12.10;10.45;;;41.10;99.90;;;;;;5054935;28;20020;-83
2022/05/18 06:51:30;;;;;;;11.70;10.52;;;41.50;99.90;;;;;;5055351;28;20021;-83
2022/05/18 06:53:57;;;;;;;12.43;10.77;;;39.40;99.90;;;;;;5055120;28;20025;-83
2022/05/18 06:56:29;;;;;;;14.60;11.05;;;40.40;99.90;;;;;;5054048;28;20369;-82
2022/05/18 06:58:56;;;;;;;12.23;10.88;;;42.30;99.90;;;;;;5054035;28;20017;-83
2022/05/18 07:01:22;;;;;;;12.32;10.43;;;39.90;99.90;;;;;;5054458;28;20074;-83
2022/05/18 07:03:48;;;;;;;15.10;11.07;;;36.40;99.90;;;;;;5036356;28;20067;-82
2022/05/18 07:06:16;;;;;;;12.20;10.45;;;34.80;99.90;;;;;;5054482;28;20029;-83
2022/05/18 07:08:42;;;;;;;12.88;11.25;;;35.10;99.90;;;;;;5051368;28;20104;-83
2022/05/18 07:11:07;;;;;;;14.30;11.63;;;34.50;99.90;;;;;;5054626;28;20028;-83
2022/05/18 07:13:34;;;;;;;13.63;11.15;;;33.50;99.90;;;;;;5045641;28;20049;-83
2022/05/18 07:16:00;;;;;;;15.18;11.40;;;34.10;99.90;;;;;;5054764;28;20027;-83
2022/05/18 07:18:30;;;;;;;17.33;11.52;;;34.00;99.90;;;;;;5053660;28;20121;-82
2022/05/18 07:20:57;;;;;;;14.82;11.77;;;35.40;99.90;;;;;;5054473;28;20022;-83
2022/05/18 07:23:23;;;;;;;15.85;11.45;;;38.80;99.90;;;;;;5036704;28;20150;-83
2022/05/18 07:25:50;;;;;;;16.73;12.32;;;39.30;99.90;;;;;;5054083;28;20049;-83
2022/05/18 07:28:16;;;;;;;15.45;12.52;;;38.90;99.90;;;;;;5053672;28;20029;-82
2022/05/18 07:30:41;;;;;;;14.85;11.82;;;37.70;99.90;;;;;;5054329;28;20017;-81
2022/05/18 07:33:07;;;;;;;14.52;11.90;;;41.40;99.90;;;;;;5043922;28;20389;-84
2022/05/18 07:35:33;;;;;;;14.40;12.90;;;39.20;99.90;;;;;;5033881;28;20030;-84
2022/05/18 07:37:59;;;;;;;18.92;12.82;;;36.90;99.90;;;;;;5034134;28;20079;-83
2022/05/18 07:40:25;;;;;;;14.63;12.20;;;37.80;99.90;;;;;;5035701;28;20392;-84
2022/05/18 07:42:54;;;;;;;16.70;12.32;;;40.60;99.90;;;;;;5036433;28;20455;-83
2022/05/18 07:45:21;;;;;;;13.18;11.77;;;42.80;99.90;;;;;;5035655;28;20022;-84
2022/05/18 07:47:47;;;;;;;16.38;12.80;;;40.30;99.90;;;;;;5035740;28;20022;-83
2022/05/18 07:50:13;;;;;;;15.63;13.00;;;38.50;99.90;;;;;;5036951;28;20097;-84
2022/05/18 07:52:39;;;;;;;19.70;13.38;;;40.60;99.90;;;;;;5037253;28;20044;-84
2022/05/18 07:55:05;;;;;;;15.80;13.10;;;42.60;99.90;;;;;;5039150;28;20025;-84
2022/05/18 07:57:33;;;;;;;17.15;12.38;;;40.20;99.90;;;;;;5038037;28;20022;-84
2022/05/18 07:59:59;;;;;;;16.30;14.07;;;42.30;99.90;;;;;;5054687;28;20025;-84
2022/05/18 08:02:27;;;;;;;17.05;13.30;;;42.20;99.90;;;;;;5039644;28;20295;-81
2022/05/18 08:04:52;;;;;;;17.13;13.07;;;43.80;99.90;;;;;;5057338;28;20025;-81
2022/05/18 08:07:18;;;;;;;17.48;14.07;;;40.50;99.90;;;;;;5057514;28;20024;-83
2022/05/18 08:15:12;;;;;;;17.58;13.05;;;42.20;99.90;;;;;;5037354;28;20045;-81
2022/05/18 08:17:42;;;;;;;18.90;14.63;;;43.40;99.90;;;;;;5036595;28;20108;-81
2022/05/18 08:20:09;;;;;;;16.77;13.15;;;44.90;99.90;;;;;;5037216;28;20029;-81
2022/05/18 08:22:35;;;;;;;15.88;13.63;;;45.40;99.90;;;;;;5038126;28;20479;-82
2022/05/18 08:25:01;;;;;;;17.98;13.60;;;45.50;99.90;;;;;;5037010;28;20064;-82
2022/05/18 08:27:27;;;;;;;14.55;13.00;;;44.60;99.90;;;;;;5036827;28;20103;-82
2022/05/18 08:30:02;;;;;;;13.07;11.63;;;44.80;99.90;;;;;;5037329;28;20033;-81
2022/05/18 08:32:28;;;;;;;15.73;12.50;;;45.40;99.90;;;;;;5037622;28;20025;-82
2022/05/18 08:34:54;;;;;;;12.98;11.20;;;44.70;99.90;;;;;;5036551;28;20393;-81
2022/05/18 08:37:22;;;;;;;14.43;10.23;;;45.30;99.90;;;;;;5035998;28;20037;-82
2022/05/18 08:39:49;;;;;;;14.07;11.15;;;46.20;99.90;;;;;;5036767;28;20048;-81
2022/05/18 08:42:15;;;;;;;12.27;10.98;;;47.10;99.90;;;;;;5038461;28;20033;-82
2022/05/18 08:44:40;;;;;;;13.68;11.43;;;46.60;99.90;;;;;;5037774;28;20033;-82
2022/05/18 08:47:42;;;;;;;13.10;11.20;;;46.50;99.90;;;;;;5046600;28;20021;-82
2022/05/18 08:50:13;;;;;;;14.55;12.25;;;45.90;99.90;;;;;;5059036;28;20028;-81
2022/05/18 08:53:03;;;;;;;16.38;12.30;;;45.50;99.90;;;;;;5057175;28;20387;-81
2022/05/18 08:55:36;;;;;;;16.42;13.52;;;42.90;99.90;;;;;;5057852;28;20101;-82
2022/05/18 08:58:04;;;;;;;20.65;14.57;;;40.80;99.90;;;;;;5057944;28;20029;-81
2022/05/18 09:00:41;;;;;;;21.10;15.75;;;40.20;99.90;;;;;;5058620;28;20525;-81
2022/05/18 09:03:15;;;;;;;18.95;15.50;;;39.20;99.90;;;;;;5058682;28;20040;-81
2022/05/18 09:05:58;;;;;;;20.88;17.42;;;39.10;99.90;;;;;;5059192;28;20165;-81
2022/05/18 09:08:25;;;;;;;19.48;16.10;;;38.10;99.90;;;;;;5059533;28;20025;-81
2022/05/18 09:11:01;;;;;;;21.70;17.17;;;37.60;99.90;;;;;;5061054;28;20472;-82
2022/05/18 09:13:28;;;;;;;23.92;18.90;;;36.70;99.90;;;;;;5060430;28;20013;-81
2022/05/18 09:16:08;;;;;;;24.30;18.30;;;35.60;99.90;;;;;;5059821;28;20025;-81
2022/05/18 09:18:57;;;;;;;21.52;16.65;;;35.90;99.90;;;;;;5059238;28;20025;-81
2022/05/18 09:21:49;;;;;;;23.48;16.42;;;36.70;99.90;;;;;;5059234;28;20025;-81
2022/05/18 09:24:49;;;;;;;24.33;18.17;;;36.30;99.90;;;;;;5038932;28;20095;-82
2022/05/18 09:27:41;;;;;;;21.83;15.98;;;36.00;99.90;;;;;;5063429;28;20045;-82
2022/05/18 09:30:19;;;;;;;24.83;17.58;;;34.40;99.90;;;;;;5064453;28;20029;-81
2022/05/18 09:33:06;;;;;;;24.63;17.63;;;34.20;99.90;;;;;;5067150;28;20372;-81
2022/05/18 09:35:39;;;;;;;23.40;16.73;;;33.30;99.90;;;;;;5066378;28;20029;-82
2022/05/18 09:38:17;;;;;;;26.35;18.30;;;32.60;99.90;;;;;;5064981;28;20025;-83
2022/05/18 09:40:47;;;;;;;23.43;17.67;;;31.90;99.90;;;;;;5064510;28;20048;-81
2022/05/18 09:43:28;;;;;;;28.05;19.10;;;32.00;99.90;;;;;;5068018;28;20044;-82
2022/05/18 09:45:55;;;;;;;23.42;15.50;;;32.50;99.90;;;;;;5067716;28;20499;-80
2022/05/18 09:48:30;;;;;;;22.95;17.23;;;31.80;99.90;;;;;;5063368;28;20024;-81
2022/05/18 09:50:56;;;;;;;23.23;17.15;;;33.20;99.90;;;;;;5066685;28;20119;-82
2022/05/18 09:53:22;;;;;;;23.98;17.70;;;33.20;99.90;;;;;;5065851;28;20029;-82
2022/05/18 09:55:49;;;;;;;23.23;17.85;;;33.30;99.90;;;;;;5064663;28;20357;-82
2022/05/18 09:58:29;;;;;;;29.65;17.95;;;31.80;99.90;;;;;;5065309;28;20023;-82
2022/05/18 10:09:46;;;;;;;22.88;17.52;;;30.40;99.90;;;;;;5065926;28;20107;-83
2022/05/18 10:12:22;;;;;;;26.67;18.85;;;29.40;99.90;;;;;;5064771;28;20040;-81
2022/05/18 10:14:56;;;;;;;25.67;17.13;;;29.40;99.90;;;;;;5060567;28;20033;-82
2022/05/18 10:17:29;;;;;;;26.05;17.42;;;29.30;99.90;;;;;;5043925;28;20033;-82
2022/05/18 10:20:11;;;;;;;26.90;17.27;;;28.70;99.90;;;;;;5042019;28;20029;-82
2022/05/18 10:22:44;;;;;;;26.73;16.98;;;29.00;99.90;;;;;;5044242;28;20026;-83
2022/05/18 10:25:23;;;;;;;22.92;17.00;;;29.50;99.90;;;;;;5026485;28;20052;-83
2022/05/18 10:27:50;;;;;;;27.50;17.83;;;29.80;99.90;;;;;;5041998;28;20053;-82
2022/05/18 10:30:32;;;;;;;22.48;16.45;;;31.10;99.90;;;;;;5042144;28;20026;-83
2022/05/18 10:33:07;;;;;;;25.75;16.58;;;30.90;99.90;;;;;;5042501;28;20032;-82
2022/05/18 10:35:44;;;;;;;23.17;15.95;;;30.40;99.90;;;;;;5040759;28;20025;-82
2022/05/18 10:38:28;;;;;;;25.08;16.33;;;31.70;99.90;;;;;;5021624;28;20036;-82
2022/05/18 10:41:13;;;;;;;22.05;15.98;;;31.90;99.90;;;;;;5040995;28;20029;-81
2022/05/18 10:43:43;;;;;;;24.52;16.95;;;31.10;99.90;;;;;;5041552;28;20028;-82
2022/05/18 10:46:34;;;;;;;21.67;15.88;;;31.40;99.90;;;;;;5041153;28;20492;-81
2022/05/18 10:49:02;;;;;;;25.98;17.00;;;30.90;99.90;;;;;;5039469;28;20049;-82
2022/05/18 10:51:43;;;;;;;24.20;15.67;;;30.80;99.90;;;;;;5041170;28;20029;-81
2022/05/18 10:54:25;;;;;;;26.75;16.83;;;30.70;99.90;;;;;;5043150;28;20023;-82
2022/05/18 10:56:52;;;;;;;23.10;16.40;;;30.10;99.90;;;;;;5040786;28;20017;-81
2022/05/18 10:59:40;;;;;;;26.42;16.75;;;29.90;99.90;;;;;;5031697;28;20025;-83
2022/05/18 11:02:15;;;;;;;24.23;16.10;;;30.00;99.90;;;;;;5039171;28;20025;-83
2022/05/18 11:04:58;;;;;;;24.55;17.30;;;30.20;99.90;;;;;;5053393;28;20043;-83
2022/05/18 11:07:26;;;;;;;24.88;16.40;;;30.10;99.90;;;;;;5053078;28;20033;-83
2022/05/18 11:09:52;;;;;;;24.23;17.03;;;29.30;99.90;;;;;;5049848;28;20078;-83
2022/05/18 11:12:44;;;;;;;24.38;18.33;;;28.90;99.90;;;;;;5056875;28;20014;-80
2022/05/18 11:15:17;;;;;;;27.35;19.23;;;28.50;99.90;;;;;;5043707;28;20304;-79
2022/05/18 11:17:58;;;;;;;26.10;17.33;;;29.40;99.90;;;;;;5064152;28;20057;-80
2022/05/18 11:20:33;;;;;;;24.23;14.45;;;30.10;99.90;;;;;;5070042;28;20088;-81
2022/05/18 11:23:25;;;;;;;27.52;18.38;;;30.10;99.90;;;;;;5073272;28;20021;-82
2022/05/18 11:26:13;;;;;;;28.48;17.25;;;30.30;99.90;;;;;;5058116;28;20134;-82
2022/05/18 11:29:00;;;;;;;27.90;17.77;;;30.60;99.90;;;;;;5044505;28;20116;-80
2022/05/18 11:31:35;;;;;;;27.30;17.45;;;30.00;99.90;;;;;;5060401;28;20653;-80
2022/05/18 11:34:20;;;;;;;27.73;17.85;;;29.90;99.90;;;;;;5061492;28;20063;-80
2022/05/18 11:37:14;;;;;;;25.20;17.33;;;29.50;99.90;;;;;;5041316;28;20037;-81
2022/05/18 11:39:59;;;;;;;26.95;17.08;;;29.80;99.90;;;;;;5041239;28;20026;-80
2022/05/18 11:42:45;;;;;;;25.52;16.73;;;29.70;99.90;;;;;;5044227;28;20396;-79
2022/05/18 11:45:40;;;;;;;24.95;16.13;;;29.20;99.90;;;;;;5058261;28;20082;-79
2022/05/18 11:48:28;;;;;;;24.05;16.63;;;29.30;99.90;;;;;;5018867;28;20040;-80
2022/05/18 11:51:12;;;;;;;24.75;16.10;;;29.30;99.90;;;;;;5061202;28;20393;-80
2022/05/18 11:54:06;;;;;;;27.40;16.48;;;28.50;99.90;;;;;;5060596;28;20025;-79
2022/05/18 11:57:22;;;;;;;24.88;16.45;;;28.20;99.90;;;;;;5047364;28;20025;-80
2022/05/18 11:59:57;;;;;;;22.75;15.82;;;28.10;99.90;;;;;;4995211;28;20064;-80
2022/05/18 12:02:44;;;;;;;21.88;14.95;;;28.40;99.90;;;;;;5036066;28;20014;-80
2022/05/18 12:05:47;;;;;;;24.98;13.90;;;28.40;99.90;;;;;;5056309;28;20028;-80
2022/05/18 12:08:39;;;;;;;25.13;14.50;;;27.90;99.90;;;;;;5068196;28;20717;-79
2022/05/18 12:11:42;;;;;;;20.40;12.82;;;27.40;99.90;;;;;;5064660;28;20029;-79
2022/05/18 12:14:11;;;;;;;19.35;11.55;;;28.00;99.90;;;;;;5064006;28;20048;-78
2022/05/18 12:16:45;;;;;;;18.48;13.15;;;28.20;99.90;;;;;;5058369;28;20045;-78
2022/05/18 12:19:23;;;;;;;24.52;13.82;;;27.30;99.90;;;;;;5062387;28;20025;-78
2022/05/18 12:22:05;;;;;;;22.33;12.35;;;26.90;99.90;;;;;;5064574;28;20025;-77
2022/05/18 12:24:31;;;;;;;20.85;12.55;;;26.80;99.90;;;;;;5068171;28;20036;-78
2022/05/18 12:26:57;;;;;;;16.45;11.32;;;26.80;99.90;;;;;;5048284;28;20041;-77
2022/05/18 12:29:25;;;;;;;20.75;13.38;;;27.00;99.90;;;;;;5050163;28;20017;-78
2022/05/18 12:31:54;;;;;;;20.58;12.35;;;26.50;99.90;;;;;;5053956;28;20029;-80
2022/05/18 12:34:37;;;;;;;17.17;11.63;;;26.60;99.90;;;;;;5048255;28;20089;-78
2022/05/18 12:37:15;;;;;;;18.23;10.20;;;26.60;99.90;;;;;;5048031;28;20033;-77
2022/05/18 12:40:01;;;;;;;18.13;12.45;;;25.70;99.90;;;;;;5045814;28;20018;-77
2022/05/18 12:42:29;;;;;;;20.38;11.15;;;26.40;99.90;;;;;;5049536;28;20033;-78
2022/05/18 12:45:09;;;;;;;17.20;10.65;;;26.60;99.90;;;;;;5047753;28;20029;-79
2022/05/18 12:47:52;;;;;;;17.85;10.63;;;25.90;99.90;;;;;;5049803;28;20061;-78
2022/05/18 12:51:05;;;;;;;18.60;11.20;;;26.20;99.90;;;;;;5051360;28;20010;-79
2022/05/18 12:53:48;;;;;;;14.50;9.93;;;25.70;99.90;;;;;;5022389;28;20065;-79
2022/05/18 12:56:22;;;;;;;13.55;8.43;;;26.50;99.90;;;;;;5044747;28;20108;-78
2022/05/18 12:58:57;;;;;;;19.17;10.65;;;26.10;99.90;;;;;;5045071;28;20112;-78
2022/05/18 13:01:28;;;;;;;14.18;8.75;;;25.90;99.90;;;;;;5039050;28;20033;-78
2022/05/18 13:04:00;;;;;;;13.35;9.25;;;25.80;99.90;;;;;;5041882;28;20030;-80
2022/05/18 13:06:39;;;;;;;13.88;8.18;;;25.60;99.90;;;;;;5045733;28;20123;-78